Time;durP1;ratioP1;P1;durP2;ratioP2;P2;SDS_P1;SDS_P2;PMS_P1;PMS_P2;Temp;Humidity;BMP_temperature;BMP_pressure;BME280_temperature;BME280_humidity;BME280_pressure;Samples;Min_cycle;Max_cycle;Signal;HPM_P1;HPM_P2
2022/05/15 00:02:28;;;;;;;7.25;5.25;;;19.00;99.90;;;;;;5048713;28;20039;-90
2022/05/15 00:04:55;;;;;;;6.80;5.47;;;18.90;99.90;;;;;;5050704;28;20100;-90
2022/05/15 00:07:21;;;;;;;6.68;4.85;;;18.80;99.90;;;;;;5037003;28;20500;-90
2022/05/15 00:09:46;;;;;;;5.72;4.85;;;18.90;99.90;;;;;;5052007;28;20029;-90
2022/05/15 00:12:13;;;;;;;7.35;4.60;;;18.90;99.90;;;;;;5050128;28;20029;-90
2022/05/15 00:14:39;;;;;;;8.65;4.93;;;18.90;99.90;;;;;;5046474;28;20025;-90
2022/05/15 00:17:05;;;;;;;5.97;4.32;;;18.90;99.90;;;;;;5048932;28;20040;-90
2022/05/15 00:19:30;;;;;;;7.25;4.97;;;18.90;99.90;;;;;;5050983;28;20017;-90
2022/05/15 00:21:56;;;;;;;6.18;4.88;;;18.70;99.90;;;;;;5060773;28;20138;-89
2022/05/15 00:24:22;;;;;;;9.13;4.55;;;18.50;99.90;;;;;;5052881;28;20029;-90
2022/05/15 00:26:48;;;;;;;6.63;5.20;;;18.30;99.90;;;;;;5078771;28;20029;-90
2022/05/15 00:29:14;;;;;;;5.90;4.47;;;18.40;99.90;;;;;;5047939;28;20052;-91
2022/05/15 00:31:39;;;;;;;7.28;5.07;;;18.50;99.90;;;;;;5051605;28;20051;-90
2022/05/15 00:34:05;;;;;;;8.55;5.32;;;18.60;99.90;;;;;;5037639;28;20109;-90
2022/05/15 00:36:31;;;;;;;6.53;5.18;;;18.80;99.90;;;;;;5039018;28;20069;-90
2022/05/15 00:38:58;;;;;;;7.22;4.50;;;18.30;99.90;;;;;;5040007;28;20025;-89
2022/05/15 00:41:24;;;;;;;7.72;5.20;;;18.10;99.90;;;;;;5045726;28;20022;-90
2022/05/15 00:43:55;;;;;;;8.57;4.88;;;18.20;99.90;;;;;;5082353;28;20048;-89
2022/05/15 00:46:26;;;;;;;6.90;4.90;;;17.90;99.90;;;;;;5051361;28;20024;-90
2022/05/15 00:48:52;;;;;;;5.40;4.80;;;17.90;99.90;;;;;;5039853;28;20075;-90
2022/05/15 00:51:27;;;;;;;7.22;4.88;;;18.10;99.90;;;;;;5039049;28;20112;-90
2022/05/15 00:53:58;;;;;;;7.28;4.95;;;18.30;99.90;;;;;;5039057;28;20029;-90
2022/05/15 00:56:28;;;;;;;6.68;5.10;;;17.90;99.90;;;;;;5037073;28;20029;-90
2022/05/15 00:58:59;;;;;;;8.27;5.35;;;17.90;99.90;;;;;;5049844;28;20021;-89
2022/05/15 01:01:24;;;;;;;10.63;5.28;;;18.20;99.90;;;;;;5057118;28;20392;-90
2022/05/15 01:03:50;;;;;;;9.77;5.28;;;18.40;99.90;;;;;;5051403;28;20164;-90
2022/05/15 01:06:16;;;;;;;5.75;4.90;;;18.40;99.90;;;;;;5044047;28;20029;-89
2022/05/15 01:08:42;;;;;;;5.80;5.20;;;18.00;99.90;;;;;;5046574;28;20060;-90
2022/05/15 01:11:13;;;;;;;5.78;5.20;;;18.10;99.90;;;;;;5048178;28;20056;-90
2022/05/15 01:13:42;;;;;;;6.35;4.93;;;18.20;99.90;;;;;;5033330;28;20025;-90
2022/05/15 01:16:09;;;;;;;8.32;4.82;;;17.70;99.90;;;;;;5037516;28;20446;-90
2022/05/15 01:18:37;;;;;;;7.03;5.20;;;17.60;99.90;;;;;;5038050;28;20493;-90
2022/05/15 01:21:22;;;;;;;6.85;5.38;;;17.70;99.90;;;;;;5037902;28;20504;-90
2022/05/15 01:23:48;;;;;;;6.88;5.47;;;17.80;99.90;;;;;;5041683;28;20025;-90
2022/05/15 01:26:14;;;;;;;5.97;5.45;;;17.90;99.90;;;;;;5061540;28;20041;-91
2022/05/15 01:28:40;;;;;;;7.68;5.47;;;18.10;99.90;;;;;;5034232;28;20040;-90
2022/05/15 01:31:06;;;;;;;7.70;5.47;;;18.20;99.90;;;;;;5048661;28;20033;-90
2022/05/15 01:33:32;;;;;;;8.25;5.45;;;18.20;99.90;;;;;;5046196;28;20090;-90
2022/05/15 01:35:57;;;;;;;6.82;5.47;;;17.90;99.90;;;;;;5050461;28;20037;-90
2022/05/15 01:38:23;;;;;;;6.60;5.70;;;17.80;99.90;;;;;;5045527;28;20028;-90
2022/05/15 01:40:50;;;;;;;7.32;6.15;;;17.90;99.90;;;;;;5048264;28;20025;-90
2022/05/15 01:43:16;;;;;;;8.13;6.13;;;18.00;99.90;;;;;;5035065;28;20025;-90
2022/05/15 01:45:41;;;;;;;9.15;6.45;;;18.00;99.90;;;;;;5045119;28;20025;-89
2022/05/15 01:48:07;;;;;;;7.82;5.22;;;18.10;99.90;;;;;;5070114;28;20401;-90
2022/05/15 01:50:33;;;;;;;9.00;5.47;;;18.10;99.90;;;;;;5037214;28;20043;-90
2022/05/15 01:52:59;;;;;;;7.70;5.18;;;18.10;99.90;;;;;;5035096;28;20100;-90
2022/05/15 01:55:25;;;;;;;6.13;4.90;;;17.70;99.90;;;;;;5034306;28;20026;-90
2022/05/15 01:57:50;;;;;;;6.68;5.13;;;17.50;99.90;;;;;;5037150;28;20029;-90
2022/05/15 02:00:19;;;;;;;9.23;5.45;;;17.70;99.90;;;;;;5037969;28;20433;-90
2022/05/15 02:02:46;;;;;;;8.18;5.45;;;17.90;99.90;;;;;;5052585;28;20047;-90
2022/05/15 02:05:12;;;;;;;5.93;4.75;;;17.70;99.90;;;;;;5046624;28;20410;-89
2022/05/15 02:07:38;;;;;;;6.38;4.88;;;17.60;99.90;;;;;;5050106;28;20029;-90
2022/05/15 02:10:06;;;;;;;6.45;5.20;;;17.60;99.90;;;;;;5046950;28;20022;-89
2022/05/15 02:12:31;;;;;;;9.02;5.65;;;17.40;99.90;;;;;;5037644;28;20037;-90
2022/05/15 02:14:57;;;;;;;6.32;5.07;;;17.30;99.90;;;;;;5052512;28;20087;-89
2022/05/15 02:17:23;;;;;;;6.03;4.97;;;17.10;99.90;;;;;;5035542;28;20052;-90
2022/05/15 02:19:49;;;;;;;5.47;4.85;;;17.40;99.90;;;;;;5048711;28;20436;-89
2022/05/15 02:22:15;;;;;;;7.22;4.95;;;17.20;99.90;;;;;;5067991;28;20036;-90
2022/05/15 02:24:41;;;;;;;7.47;5.63;;;16.90;99.90;;;;;;5038213;28;20470;-90
2022/05/15 02:27:07;;;;;;;9.20;5.85;;;16.70;99.90;;;;;;5045216;28;20092;-89
2022/05/15 02:29:33;;;;;;;6.47;5.28;;;16.50;99.90;;;;;;5045938;28;20033;-89
2022/05/15 02:31:59;;;;;;;8.65;5.90;;;16.50;99.90;;;;;;5048619;28;20030;-90
2022/05/15 02:34:25;;;;;;;6.03;5.05;;;16.60;99.90;;;;;;5034254;28;20049;-89
2022/05/15 02:36:50;;;;;;;6.30;5.30;;;16.70;99.90;;;;;;5051396;28;20036;-90
2022/05/15 02:39:16;;;;;;;7.93;5.35;;;16.60;99.90;;;;;;5047873;28;20397;-90
2022/05/15 02:41:41;;;;;;;6.22;5.35;;;16.50;99.90;;;;;;5044065;28;20029;-90
2022/05/15 02:44:07;;;;;;;5.85;4.85;;;16.60;99.90;;;;;;5046972;28;20025;-90
2022/05/15 02:46:33;;;;;;;6.10;5.10;;;16.40;99.90;;;;;;5048902;28;25207;-90
2022/05/15 02:51:42;;;;;;;6.90;4.90;;;16.30;99.90;;;;;;5053294;28;20135;-90
2022/05/15 02:54:08;;;;;;;6.18;4.93;;;16.20;99.90;;;;;;5052005;28;20123;-90
2022/05/15 02:56:36;;;;;;;5.18;4.70;;;16.20;99.90;;;;;;5049995;28;20041;-90
2022/05/15 02:59:01;;;;;;;6.65;4.78;;;16.30;99.90;;;;;;5038077;28;20025;-90
2022/05/15 03:01:27;;;;;;;5.53;4.70;;;16.40;99.90;;;;;;5050612;28;20024;-89
2022/05/15 03:03:52;;;;;;;4.80;4.30;;;16.50;99.90;;;;;;5058915;28;20032;-90
2022/05/15 03:06:19;;;;;;;7.82;5.00;;;16.50;99.90;;;;;;5046645;28;20028;-90
2022/05/15 03:08:47;;;;;;;6.03;5.03;;;16.20;99.90;;;;;;5048142;28;20087;-90
2022/05/15 03:11:14;;;;;;;5.78;5.15;;;16.10;99.90;;;;;;5040534;28;20143;-90
2022/05/15 03:13:41;;;;;;;6.38;5.68;;;16.10;99.90;;;;;;5036066;28;20033;-90
2022/05/15 03:16:08;;;;;;;6.68;5.00;;;16.30;99.90;;;;;;5038602;28;20037;-90
2022/05/15 03:18:47;;;;;;;6.22;5.43;;;16.30;99.90;;;;;;5054754;28;20428;-90
2022/05/15 03:21:28;;;;;;;7.25;5.40;;;16.50;99.90;;;;;;5052459;28;20037;-90
2022/05/15 03:23:55;;;;;;;8.18;5.88;;;16.60;99.90;;;;;;5046776;28;20040;-90
2022/05/15 03:26:22;;;;;;;6.63;5.50;;;16.50;99.90;;;;;;5048395;28;20500;-89
2022/05/15 03:28:47;;;;;;;9.25;5.93;;;16.40;99.90;;;;;;5059397;28;20032;-90
2022/05/15 03:31:13;;;;;;;6.75;5.60;;;16.30;99.90;;;;;;5055630;28;20036;-89
2022/05/15 03:33:39;;;;;;;6.50;5.57;;;16.30;99.90;;;;;;5039377;28;20025;-89
2022/05/15 03:36:10;;;;;;;7.40;5.85;;;16.50;99.90;;;;;;5050883;28;20086;-90
2022/05/15 03:38:37;;;;;;;9.30;6.10;;;16.30;99.90;;;;;;5048771;28;20044;-90
2022/05/15 03:41:03;;;;;;;7.32;5.68;;;16.00;99.90;;;;;;5038436;28;20080;-89
2022/05/15 03:43:29;;;;;;;6.07;5.47;;;16.00;99.90;;;;;;5067321;28;20028;-90
2022/05/15 03:45:54;;;;;;;8.18;5.50;;;15.80;99.90;;;;;;5080653;28;20043;-90
2022/05/15 03:48:20;;;;;;;6.22;5.63;;;15.70;99.90;;;;;;5043226;28;20393;-90
2022/05/15 03:50:46;;;;;;;6.70;5.55;;;15.70;99.90;;;;;;5039105;28;20041;-89
2022/05/15 03:53:11;;;;;;;6.45;5.20;;;15.60;99.90;;;;;;5040050;28;20021;-89
2022/05/15 03:55:37;;;;;;;6.90;5.45;;;15.60;99.90;;;;;;5054743;28;20045;-90
2022/05/15 03:58:03;;;;;;;9.05;5.03;;;15.80;99.90;;;;;;5039402;28;20025;-90
2022/05/15 04:00:29;;;;;;;7.57;5.43;;;15.80;99.90;;;;;;5043992;28;20056;-90
2022/05/15 04:02:55;;;;;;;8.32;5.40;;;16.10;99.90;;;;;;5045364;28;20029;-90
2022/05/15 04:05:21;;;;;;;6.88;5.35;;;16.10;99.90;;;;;;5036595;28;20025;-90
2022/05/15 04:07:50;;;;;;;6.53;5.47;;;16.10;99.90;;;;;;5052312;28;20041;-90
2022/05/15 04:10:19;;;;;;;10.10;5.32;;;16.10;99.90;;;;;;5064701;28;20044;-90
2022/05/15 04:12:45;;;;;;;6.95;4.95;;;15.80;99.90;;;;;;5039256;28;20037;-89
2022/05/15 04:15:11;;;;;;;7.38;6.00;;;15.80;99.90;;;;;;5038032;28;20119;-90
2022/05/15 04:17:46;;;;;;;5.60;4.90;;;15.90;99.90;;;;;;5044435;28;20063;-89
2022/05/15 04:20:14;;;;;;;6.60;5.15;;;15.80;99.90;;;;;;5048710;28;20098;-90
2022/05/15 04:22:41;;;;;;;6.22;5.40;;;15.80;99.90;;;;;;5034217;28;20490;-90
2022/05/15 04:25:08;;;;;;;6.25;5.25;;;16.00;99.90;;;;;;5066289;28;20059;-90
2022/05/15 04:27:34;;;;;;;5.53;4.95;;;16.10;99.90;;;;;;5048933;28;20123;-89
2022/05/15 04:29:59;;;;;;;6.35;5.03;;;16.20;99.90;;;;;;5047408;28;20402;-90
2022/05/15 04:32:25;;;;;;;5.95;5.35;;;15.90;99.90;;;;;;5046917;28;20032;-89
2022/05/15 04:34:51;;;;;;;6.47;5.38;;;16.10;99.90;;;;;;5051330;28;20072;-90
2022/05/15 04:37:16;;;;;;;6.55;5.00;;;15.90;99.90;;;;;;5037085;28;20038;-89
2022/05/15 04:39:42;;;;;;;6.15;4.75;;;16.00;99.90;;;;;;5051290;28;20037;-90
2022/05/15 04:42:08;;;;;;;5.85;5.10;;;15.70;99.90;;;;;;5047328;28;20021;-89
2022/05/15 04:44:34;;;;;;;6.22;4.80;;;15.60;99.90;;;;;;5046244;28;20095;-90
2022/05/15 04:47:00;;;;;;;7.03;4.93;;;15.70;99.90;;;;;;5048467;28;20514;-90
2022/05/15 04:49:26;;;;;;;8.00;4.85;;;15.70;99.90;;;;;;5052539;28;20043;-90
2022/05/15 04:51:51;;;;;;;5.82;5.10;;;15.60;99.90;;;;;;5048035;28;20489;-90
2022/05/15 04:54:17;;;;;;;6.50;5.00;;;15.60;99.90;;;;;;5077535;28;20044;-90
2022/05/15 04:56:42;;;;;;;5.95;4.82;;;15.60;99.90;;;;;;5038644;28;20383;-90
2022/05/15 04:59:09;;;;;;;6.30;5.10;;;15.50;99.90;;;;;;5037359;28;20021;-90
2022/05/15 05:01:34;;;;;;;7.10;5.32;;;15.60;99.90;;;;;;5051660;28;20045;-90
2022/05/15 05:04:00;;;;;;;6.68;5.07;;;15.50;99.90;;;;;;5034567;28;20493;-89
2022/05/15 05:06:28;;;;;;;6.05;5.50;;;15.60;99.90;;;;;;5034669;28;20037;-88
2022/05/15 05:08:54;;;;;;;6.20;5.60;;;15.70;99.90;;;;;;5035374;28;20531;-90
2022/05/15 05:11:20;;;;;;;8.55;5.82;;;15.70;99.90;;;;;;5033905;28;20029;-90
2022/05/15 05:13:46;;;;;;;7.03;5.65;;;15.70;99.90;;;;;;5035319;28;20029;-90
2022/05/15 05:16:13;;;;;;;6.28;5.25;;;15.70;99.90;;;;;;5037088;28;20083;-90
2022/05/15 05:18:39;;;;;;;6.60;5.93;;;15.90;99.90;;;;;;5039232;28;20033;-89
2022/05/15 05:21:05;;;;;;;6.93;5.45;;;16.00;99.90;;;;;;5049124;28;20028;-90
2022/05/15 05:23:31;;;;;;;7.57;5.57;;;16.40;99.90;;;;;;5047254;28;20512;-90
2022/05/15 05:25:57;;;;;;;10.55;6.35;;;16.30;99.90;;;;;;5054466;28;20025;-90
2022/05/15 05:28:23;;;;;;;6.57;5.53;;;16.10;99.90;;;;;;5053451;28;20081;-90
2022/05/15 05:30:50;;;;;;;8.55;6.40;;;16.20;99.90;;;;;;5053246;28;20029;-90
2022/05/15 05:33:15;;;;;;;8.60;5.70;;;16.20;99.90;;;;;;5036885;28;20041;-89
2022/05/15 05:35:42;;;;;;;7.28;6.22;;;16.30;99.90;;;;;;5032432;28;20046;-89
2022/05/15 05:38:09;;;;;;;7.38;6.20;;;16.60;99.90;;;;;;5041236;28;20032;-90
2022/05/15 05:40:35;;;;;;;6.95;6.25;;;16.80;99.90;;;;;;5051057;28;20033;-90
2022/05/15 05:43:00;;;;;;;7.22;6.05;;;17.00;99.90;;;;;;5033407;28;20025;-89
2022/05/15 05:45:26;;;;;;;8.05;5.97;;;16.90;99.90;;;;;;5033919;28;20045;-90
2022/05/15 05:47:52;;;;;;;6.63;6.03;;;17.10;99.90;;;;;;5045369;28;20109;-90
2022/05/15 05:50:21;;;;;;;7.60;6.47;;;17.10;99.90;;;;;;5051814;28;20042;-90
2022/05/15 05:52:47;;;;;;;7.60;6.40;;;17.00;99.90;;;;;;5062939;28;20437;-90
2022/05/15 05:55:15;;;;;;;7.97;6.70;;;17.10;99.90;;;;;;5033392;28;20030;-90
2022/05/15 05:57:42;;;;;;;7.88;6.75;;;17.20;99.90;;;;;;5044591;28;20032;-89
2022/05/15 06:00:12;;;;;;;10.45;7.20;;;17.50;99.90;;;;;;5051930;28;20181;-90
2022/05/15 06:02:38;;;;;;;8.23;7.45;;;17.50;99.90;;;;;;5043517;28;20032;-89
2022/05/15 06:05:05;;;;;;;9.75;7.25;;;17.50;99.90;;;;;;5046887;28;20034;-90
2022/05/15 06:07:33;;;;;;;10.38;6.82;;;17.70;99.90;;;;;;5033560;28;20486;-90
2022/05/15 06:10:00;;;;;;;9.90;7.28;;;17.80;99.90;;;;;;5033420;28;20406;-90
2022/05/15 06:12:26;;;;;;;8.63;6.97;;;17.90;99.90;;;;;;5034975;28;20045;-89
2022/05/15 06:14:52;;;;;;;10.52;7.63;;;18.20;99.90;;;;;;5046471;28;20025;-90
2022/05/15 06:17:23;;;;;;;10.93;7.30;;;18.30;99.90;;;;;;5043610;28;20064;-89
2022/05/15 06:19:48;;;;;;;9.73;8.40;;;18.40;99.90;;;;;;5033154;28;20022;-89
2022/05/15 06:22:14;;;;;;;11.77;7.75;;;18.50;99.90;;;;;;5047567;28;20036;-89
2022/05/15 06:24:40;;;;;;;10.65;8.00;;;18.60;99.90;;;;;;5052362;28;20026;-90
2022/05/15 06:27:06;;;;;;;9.25;8.02;;;18.80;99.90;;;;;;5035389;28;20037;-89
2022/05/15 06:29:32;;;;;;;9.85;8.57;;;18.90;99.90;;;;;;5047096;28;20025;-90
2022/05/15 06:31:59;;;;;;;10.75;8.35;;;19.00;99.90;;;;;;5044942;28;20086;-90
2022/05/15 06:34:25;;;;;;;10.23;8.80;;;19.10;99.90;;;;;;5039302;28;20053;-93
2022/05/15 06:36:51;;;;;;;11.05;8.60;;;19.20;99.90;;;;;;5040204;28;20092;-88
2022/05/15 06:39:17;;;;;;;9.73;8.77;;;19.20;99.90;;;;;;5037671;28;20021;-87
2022/05/15 06:41:42;;;;;;;15.43;9.23;;;19.40;99.90;;;;;;5072734;28;20025;-88
2022/05/15 06:44:08;;;;;;;11.50;8.50;;;19.60;99.90;;;;;;5038043;28;20022;-89
2022/05/15 06:46:34;;;;;;;11.40;9.63;;;19.70;99.90;;;;;;5050432;28;20041;-89
2022/05/15 06:48:59;;;;;;;11.32;8.98;;;19.80;99.90;;;;;;5037255;28;20303;-87
2022/05/15 06:51:26;;;;;;;10.30;8.90;;;19.80;99.90;;;;;;5049716;28;20090;-88
2022/05/15 06:53:52;;;;;;;13.65;9.30;;;20.00;99.90;;;;;;5039131;28;20045;-88
2022/05/15 06:59:03;;;;;;;13.65;9.50;;;20.20;99.90;;;;;;5043489;28;20060;-90
2022/05/15 07:01:30;;;;;;;13.52;9.30;;;20.20;99.90;;;;;;5041838;28;20105;-91
2022/05/15 07:03:55;;;;;;;9.88;8.30;;;20.30;99.90;;;;;;5040060;28;20029;-90
2022/05/15 07:06:21;;;;;;;10.40;8.75;;;20.40;99.90;;;;;;5051080;28;20021;-90
2022/05/15 07:08:48;;;;;;;10.40;8.85;;;20.50;99.90;;;;;;5047559;28;20048;-90
2022/05/15 07:11:14;;;;;;;11.07;8.63;;;20.50;99.90;;;;;;5041782;28;20029;-90
2022/05/15 07:13:40;;;;;;;11.88;8.45;;;20.60;99.90;;;;;;5042230;28;20059;-89
2022/05/15 07:16:05;;;;;;;9.85;8.85;;;20.60;99.90;;;;;;5053832;28;20075;-90
2022/05/15 07:18:32;;;;;;;11.30;8.35;;;20.80;99.90;;;;;;5050940;28;20048;-90
2022/05/15 07:20:58;;;;;;;13.98;9.00;;;20.80;99.90;;;;;;5049177;28;20477;-90
2022/05/15 07:23:26;;;;;;;9.68;8.65;;;20.80;99.90;;;;;;5050854;28;20040;-90
2022/05/15 07:25:53;;;;;;;10.65;8.20;;;20.90;99.90;;;;;;5036993;28;20032;-89
2022/05/15 07:28:18;;;;;;;9.95;8.20;;;21.00;99.90;;;;;;5041885;28;20033;-89
2022/05/15 07:30:44;;;;;;;11.52;8.05;;;21.20;99.90;;;;;;5055357;28;20081;-90
2022/05/15 07:33:10;;;;;;;9.38;7.63;;;21.30;99.90;;;;;;5045671;28;20092;-93
2022/05/15 07:35:35;;;;;;;8.55;7.57;;;21.30;99.90;;;;;;5041194;28;20144;-92
2022/05/15 07:38:01;;;;;;;9.23;7.30;;;21.30;99.90;;;;;;5051206;28;20120;-92
2022/05/15 07:40:27;;;;;;;10.57;8.13;;;21.30;99.90;;;;;;5037877;28;20104;-91
2022/05/15 07:42:53;;;;;;;13.13;7.32;;;21.40;99.90;;;;;;5058482;28;20025;-92
2022/05/15 07:45:19;;;;;;;7.53;6.78;;;21.50;99.90;;;;;;5054041;28;20461;-89
2022/05/15 07:47:45;;;;;;;10.30;7.57;;;21.50;99.90;;;;;;5053296;28;20049;-88
2022/05/15 07:50:12;;;;;;;11.45;7.28;;;21.60;99.90;;;;;;5049187;28;20021;-90
2022/05/15 07:52:38;;;;;;;11.40;7.32;;;21.60;99.90;;;;;;5051424;28;20025;-89
2022/05/15 07:55:06;;;;;;;9.07;6.57;;;21.60;99.90;;;;;;5034564;28;20021;-90
2022/05/15 07:57:34;;;;;;;9.02;7.03;;;21.70;99.90;;;;;;5039870;28;20471;-91
2022/05/15 08:00:03;;;;;;;13.45;6.47;;;21.70;99.90;;;;;;5041849;28;20052;-91
2022/05/15 08:02:29;;;;;;;7.55;6.45;;;21.80;99.90;;;;;;5058692;28;20033;-91
2022/05/15 08:10:23;;;;;;;7.38;6.25;;;22.00;99.90;;;;;;5050388;28;20151;-89
2022/05/15 08:12:48;;;;;;;7.35;6.40;;;21.90;99.90;;;;;;5040235;28;20049;-90
2022/05/15 08:15:14;;;;;;;9.10;6.30;;;21.90;99.90;;;;;;5040258;28;20025;-92
2022/05/15 08:17:39;;;;;;;11.75;6.53;;;22.00;99.90;;;;;;5045822;28;20057;-92
2022/05/15 08:25:37;;;;;;;6.88;6.10;;;22.20;99.90;;;;;;5037273;28;20052;-92
2022/05/15 08:28:03;;;;;;;10.40;6.18;;;22.40;99.90;;;;;;5038275;28;20029;-89
2022/05/15 08:30:29;;;;;;;6.15;5.55;;;22.50;99.90;;;;;;5048353;28;20070;-91
2022/05/15 08:32:55;;;;;;;7.55;5.88;;;22.50;99.90;;;;;;5058556;28;20025;-88
2022/05/15 08:35:20;;;;;;;7.35;5.30;;;22.50;99.90;;;;;;5057745;28;20056;-89
2022/05/15 08:37:46;;;;;;;7.32;5.70;;;22.60;99.90;;;;;;5049974;28;20494;-90
2022/05/15 08:40:12;;;;;;;6.75;5.57;;;22.80;99.90;;;;;;5035187;28;20565;-91
2022/05/15 08:42:50;;;;;;;7.07;5.60;;;22.90;99.90;;;;;;5045300;28;20063;-90
2022/05/15 08:45:20;;;;;;;9.52;5.65;;;23.00;99.90;;;;;;5042788;28;20032;-91
2022/05/15 08:47:48;;;;;;;8.85;5.18;;;23.00;99.90;;;;;;5038969;28;20079;-92
2022/05/15 08:50:17;;;;;;;9.02;5.80;;;23.00;99.90;;;;;;5057454;28;20029;-88
2022/05/15 08:52:48;;;;;;;9.18;5.75;;;23.10;99.90;;;;;;5035503;28;20056;-88
2022/05/15 08:55:40;;;;;;;9.48;6.90;;;23.10;99.90;;;;;;5049169;28;20037;-87
2022/05/15 08:58:09;;;;;;;7.22;6.22;;;23.10;99.90;;;;;;5047702;28;20043;-91
2022/05/15 09:00:47;;;;;;;10.10;6.95;;;23.20;99.90;;;;;;5047708;28;20032;-90
2022/05/15 09:03:35;;;;;;;9.05;6.63;;;23.20;99.90;;;;;;5052667;28;20035;-87
2022/05/15 09:06:15;;;;;;;7.57;6.85;;;23.30;99.90;;;;;;5046427;28;20056;-90
2022/05/15 09:08:54;;;;;;;8.48;7.30;;;23.40;99.90;;;;;;5053661;28;20032;-87
2022/05/15 09:11:55;;;;;;;8.82;6.97;;;23.40;99.90;;;;;;5045679;28;20052;-88
2022/05/15 09:14:45;;;;;;;7.93;7.05;;;23.50;99.90;;;;;;5044563;28;20082;-86
2022/05/15 09:17:41;;;;;;;10.05;7.35;;;23.30;99.90;;;;;;5047118;28;20045;-86
2022/05/15 09:20:13;;;;;;;8.40;7.28;;;23.40;99.90;;;;;;5049155;28;20390;-89
2022/05/15 09:22:43;;;;;;;8.43;7.53;;;23.60;99.90;;;;;;5034791;28;20048;-89
2022/05/15 09:25:17;;;;;;;10.32;7.03;;;23.70;99.90;;;;;;5065603;28;20024;-90
2022/05/15 09:28:01;;;;;;;8.23;7.20;;;24.10;99.90;;;;;;5037049;28;20030;-89
2022/05/15 09:30:42;;;;;;;12.40;7.70;;;24.20;99.90;;;;;;5038886;28;20025;-89
2022/05/15 09:33:23;;;;;;;9.93;7.47;;;24.10;99.90;;;;;;5049227;28;20070;-90
2022/05/15 09:35:49;;;;;;;8.05;7.15;;;24.10;99.90;;;;;;5048070;28;20064;-89
2022/05/15 09:38:29;;;;;;;10.50;7.80;;;24.10;99.90;;;;;;5037686;28;20462;-89
2022/05/15 09:43:55;;;;;;;8.80;7.70;;;24.40;99.90;;;;;;5034772;28;20094;-87
2022/05/15 09:46:23;;;;;;;9.45;7.57;;;24.40;99.90;;;;;;5048538;28;20028;-87
2022/05/15 09:49:22;;;;;;;9.60;7.63;;;24.40;99.90;;;;;;5051816;28;20036;-87
2022/05/15 09:51:53;;;;;;;10.32;8.30;;;24.40;99.90;;;;;;5046905;28;20048;-87
2022/05/15 09:54:34;;;;;;;9.20;7.35;;;24.40;99.90;;;;;;5043325;28;20594;-87
2022/05/15 09:57:09;;;;;;;12.05;7.70;;;24.60;99.90;;;;;;5050437;28;20037;-86
2022/05/15 09:59:35;;;;;;;11.80;8.05;;;24.70;99.90;;;;;;5043766;28;20033;-87
2022/05/15 10:02:01;;;;;;;11.43;7.97;;;24.60;99.90;;;;;;5047456;28;20025;-87
2022/05/15 10:04:37;;;;;;;8.88;8.02;;;24.80;99.90;;;;;;5060541;28;20159;-86
2022/05/15 10:07:07;;;;;;;12.40;8.60;;;24.70;99.90;;;;;;5032563;28;20141;-90
2022/05/15 10:09:39;;;;;;;9.68;7.75;;;24.90;99.90;;;;;;5044539;28;20032;-90
2022/05/15 10:12:37;;;;;;;11.50;8.02;;;24.80;99.90;;;;;;5044761;28;20021;-90
2022/05/15 10:15:08;;;;;;;9.13;7.72;;;24.70;99.90;;;;;;5040710;28;20370;-90
2022/05/15 10:17:37;;;;;;;12.35;8.10;;;24.80;99.90;;;;;;5045339;28;20048;-93
2022/05/15 10:20:29;;;;;;;9.07;7.50;;;24.90;99.90;;;;;;5061385;28;20033;-90
2022/05/15 10:23:16;;;;;;;8.77;7.80;;;25.10;99.90;;;;;;5037926;28;20513;-94
2022/05/15 10:25:48;;;;;;;7.80;6.95;;;25.20;99.90;;;;;;5052591;28;20029;-90
2022/05/15 10:28:30;;;;;;;10.40;7.72;;;25.20;99.90;;;;;;5049132;28;20033;-93
2022/05/15 10:31:08;;;;;;;10.23;7.97;;;25.40;99.90;;;;;;5065361;28;20041;-92
2022/05/15 10:33:40;;;;;;;9.00;7.70;;;25.50;99.90;;;;;;5051916;28;20494;-92
2022/05/15 10:36:27;;;;;;;9.73;7.93;;;25.40;99.90;;;;;;5051100;28;20484;-94
2022/05/15 10:39:20;;;;;;;8.32;7.45;;;25.60;99.90;;;;;;5046778;28;20021;-94
2022/05/15 10:41:46;;;;;;;10.95;8.48;;;25.70;99.90;;;;;;5045702;28;20454;-93
2022/05/15 10:44:39;;;;;;;11.82;8.35;;;25.80;99.90;;;;;;5050511;28;20088;-90
2022/05/15 10:47:08;;;;;;;10.98;8.30;;;25.90;99.90;;;;;;5032975;28;20041;-92
2022/05/15 10:49:43;;;;;;;9.82;8.48;;;26.00;99.90;;;;;;5063159;28;20424;-89
2022/05/15 10:52:31;;;;;;;10.05;8.40;;;26.00;99.90;;;;;;5036475;28;20112;-89
2022/05/15 10:58:02;;;;;;;12.40;9.02;;;26.10;99.90;;;;;;5016478;28;20049;-90
2022/05/15 11:00:37;;;;;;;10.07;8.10;;;26.40;99.90;;;;;;5018029;28;20040;-89
2022/05/15 11:03:14;;;;;;;10.73;8.82;;;26.20;99.90;;;;;;5020866;28;20140;-89
2022/05/15 11:05:52;;;;;;;8.27;7.57;;;26.50;99.90;;;;;;5026097;28;20403;-89
2022/05/15 11:08:26;;;;;;;10.57;8.48;;;26.70;99.90;;;;;;5001688;28;20029;-89
2022/05/15 11:11:10;;;;;;;8.93;7.78;;;26.60;99.90;;;;;;5013929;28;20037;-85
2022/05/15 11:14:07;;;;;;;8.93;7.25;;;26.80;99.90;;;;;;5016663;28;20045;-88
2022/05/15 11:16:40;;;;;;;10.95;7.97;;;26.60;99.90;;;;;;5031552;28;20064;-89
2022/05/15 11:19:40;;;;;;;9.35;7.55;;;26.60;99.90;;;;;;5031265;28;20067;-89
2022/05/15 11:22:33;;;;;;;8.45;6.95;;;26.40;99.90;;;;;;5032709;28;20033;-89
2022/05/15 11:25:15;;;;;;;12.40;7.38;;;26.40;99.90;;;;;;5031383;28;20072;-89
2022/05/15 11:27:46;;;;;;;9.23;7.30;;;26.20;99.90;;;;;;5032963;28;20065;-88
2022/05/15 11:30:19;;;;;;;10.05;7.93;;;26.10;99.90;;;;;;5023893;28;20394;-87
2022/05/15 11:32:44;;;;;;;7.70;7.00;;;26.20;99.90;;;;;;5036784;28;20033;-88
2022/05/15 11:35:18;;;;;;;10.60;7.20;;;26.40;99.90;;;;;;5051878;28;20529;-88
2022/05/15 11:37:56;;;;;;;9.82;7.28;;;26.70;99.90;;;;;;5036854;28;20037;-88
2022/05/15 11:40:49;;;;;;;11.07;7.70;;;26.70;99.90;;;;;;5048420;28;20045;-88
2022/05/15 11:43:26;;;;;;;10.27;7.95;;;27.00;99.90;;;;;;5050495;28;20033;-88
2022/05/15 11:46:01;;;;;;;10.45;6.90;;;27.20;99.90;;;;;;5048963;28;20078;-88
2022/05/15 11:48:37;;;;;;;7.57;6.85;;;27.10;99.90;;;;;;5040062;28;20086;-88
2022/05/15 11:51:25;;;;;;;8.02;6.72;;;27.50;99.90;;;;;;5047683;28;20393;-88
2022/05/15 11:54:06;;;;;;;7.90;6.97;;;27.70;99.90;;;;;;5047882;28;20044;-87
2022/05/15 11:56:58;;;;;;;7.78;6.72;;;28.10;99.90;;;;;;5050999;28;20397;-87
2022/05/15 11:59:27;;;;;;;7.55;6.65;;;28.50;99.90;;;;;;5046130;28;20065;-89
2022/05/15 12:02:03;;;;;;;7.57;6.78;;;28.00;99.90;;;;;;5050286;28;20021;-87
2022/05/15 12:04:34;;;;;;;8.13;7.05;;;28.30;99.90;;;;;;5065707;28;20036;-88
2022/05/15 12:07:00;;;;;;;8.07;6.35;;;28.50;99.90;;;;;;5038911;28;20034;-88
2022/05/15 12:09:40;;;;;;;7.28;6.57;;;29.00;99.90;;;;;;5039033;28;20112;-89
2022/05/15 12:12:24;;;;;;;7.50;6.47;;;28.60;99.90;;;;;;5038924;28;20035;-88
2022/05/15 12:15:09;;;;;;;8.57;6.25;;;28.80;99.90;;;;;;5038598;28;20025;-88
2022/05/15 12:17:39;;;;;;;8.00;6.70;;;29.40;99.90;;;;;;5037614;28;20040;-88
2022/05/15 12:20:20;;;;;;;9.27;6.60;;;29.70;99.90;;;;;;5037024;28;20032;-88
2022/05/15 12:23:01;;;;;;;9.75;6.43;;;29.50;99.90;;;;;;5035881;28;20056;-88
2022/05/15 12:25:46;;;;;;;9.30;6.45;;;29.60;99.90;;;;;;5049889;28;20040;-88
2022/05/15 12:28:50;;;;;;;9.15;6.40;;;29.80;99.90;;;;;;5048031;28;20029;-88
2022/05/15 12:31:30;;;;;;;9.48;6.90;;;30.20;99.90;;;;;;5036660;28;20040;-88
2022/05/15 12:34:22;;;;;;;8.25;6.03;;;30.00;99.90;;;;;;5054628;28;20073;-88
2022/05/15 12:37:01;;;;;;;7.28;6.22;;;30.30;99.90;;;;;;5047505;28;20479;-86
2022/05/15 12:39:40;;;;;;;8.73;7.65;;;30.60;99.90;;;;;;5046860;28;20025;-86
2022/05/15 12:42:18;;;;;;;9.13;6.70;;;30.90;99.90;;;;;;5046551;28;20048;-86
2022/05/15 12:44:44;;;;;;;9.23;6.50;;;30.70;99.90;;;;;;5045972;28;20125;-86
2022/05/15 12:47:21;;;;;;;9.18;6.70;;;30.60;99.90;;;;;;5069323;28;20111;-85
2022/05/15 12:49:47;;;;;;;7.65;6.93;;;30.60;99.90;;;;;;5035963;28;20025;-86
2022/05/15 12:52:15;;;;;;;8.35;6.50;;;31.20;99.90;;;;;;5049245;28;20025;-86
2022/05/15 12:54:42;;;;;;;7.97;6.38;;;30.80;99.90;;;;;;5038170;28;20030;-86
2022/05/15 12:57:15;;;;;;;9.98;6.40;;;30.50;99.90;;;;;;5037610;28;20501;-85
2022/05/15 12:59:49;;;;;;;9.82;6.80;;;30.90;99.90;;;;;;5038023;28;20021;-86
2022/05/15 13:02:24;;;;;;;10.30;6.78;;;30.90;99.90;;;;;;5038441;28;20044;-86
2022/05/15 13:04:53;;;;;;;8.95;6.35;;;30.80;99.90;;;;;;5067132;28;20485;-86
2022/05/15 13:07:30;;;;;;;9.73;6.47;;;31.00;99.90;;;;;;5048970;28;20482;-86
2022/05/15 13:10:20;;;;;;;8.00;6.57;;;31.30;99.90;;;;;;5037178;28;20580;-85
2022/05/15 13:12:53;;;;;;;9.48;6.18;;;31.40;99.90;;;;;;5037641;28;20044;-86
2022/05/15 13:15:26;;;;;;;7.65;6.45;;;31.40;99.90;;;;;;5037721;28;20346;-86
2022/05/15 13:17:54;;;;;;;9.25;6.25;;;31.30;99.90;;;;;;5047281;28;20039;-86
2022/05/15 13:20:22;;;;;;;7.47;6.35;;;31.20;99.90;;;;;;5045706;28;20393;-86
2022/05/15 13:22:52;;;;;;;7.32;5.90;;;31.80;99.90;;;;;;5048966;28;20035;-86
2022/05/15 13:25:27;;;;;;;9.68;6.80;;;31.20;99.90;;;;;;5035782;28;20112;-86